Leeds Point, New Jersey
Current Conditions -  °F | °C
As of 2:05 AM on Monday 24 Nov 2014 (Local Time) from KACY Reporting Station
Moderate Rain Moderate Rain  
Wind Chill: 59°   Ceiling: 2600
Heat Index: 59°   Visibility: 5mi
Dew Point: 58°   Wind: 17mph
Humidity: 96%   Direction: 140°SE
Pressure: 29.83"   Gusts: 24mph
Location:  39.49°N, 74.43°W
Report Text: KACY 240705Z 14015G21KT 5SM RA BR SCT006 BKN026 OVC034 15/14 A2983 RMK AO2 P0001 T01500144
Loading
Personal Weather Stations






























Interactive Weather Map New forecast layout! Learn more

10-Day Weather Forecast

Advertisements
Track Severe Weather on mobile